Barclay, Minnesota
Current Conditions -  °F | °C
As of 4:33 AM on Monday 26 Jan 2015 (Local Time) from KPWC Reporting Station
Overcast Overcast  
Wind Chill: 18°   Ceiling: 1300
Heat Index: 27°   Visibility: 10mi
Dew Point: 25°   Wind: 8mph
Humidity: 93%   Direction: 190°S
Pressure: 29.67"   Gusts: NA
Location:  46.6535°N, 94.5389°W
Report Text: KPWC 261033Z AUTO 19007KT 10SM OVC013 M03/M04 A2967 RMK AO2
Loading
Personal Weather Stations






























Interactive Weather Map New forecast layout! Learn more

10-Day Weather Forecast

Advertisements
Track Severe Weather on mobile